Okahumpka, Florida
Current Conditions -  °F | °C
As of 6:53 AM on Friday 24 Oct 2014 (Local Time) from KLEE Reporting Station
Clear Clear  
Wind Chill: 60°   Ceiling: Unl
Heat Index: 60°   Visibility: 10mi
Dew Point: 54°   Wind: 8mph
Humidity: 80%   Direction: 20°NNE
Pressure: 29.99"   Gusts: NA
Location:  28.75°N, 81.9°W
Report Text: KLEE 241053Z 02007KT 10SM CLR 16/12 A2999 RMK AO2 SLP155 T01560122
Loading
Personal Weather Stations






























Interactive Weather Map
Tropical Storm Tracking
New forecast layout! Learn more

10-Day Weather Forecast

Advertisements
Track Severe Weather on mobile